createdAt,value
2023-03-13T00:01:55.708Z,4.20
2023-03-13T00:04:03.850Z,3.25
2023-03-13T00:06:12.558Z,4.55
2023-03-13T00:08:20.354Z,3.95
2023-03-13T00:10:30.745Z,4.80
2023-03-13T00:12:38.948Z,4.47
2023-03-13T00:14:46.657Z,4.20
2023-03-13T00:16:54.542Z,3.70
2023-03-13T00:19:02.429Z,3.70
2023-03-13T00:21:12.091Z,3.92
2023-03-13T00:23:20.479Z,4.53
2023-03-13T00:25:31.138Z,4.03
2023-03-13T00:27:39.397Z,3.55
2023-03-13T00:29:47.277Z,5.13
2023-03-13T00:31:55.192Z,3.60
2023-03-13T00:34:04.884Z,4.00
2023-03-13T00:36:15.036Z,3.78
2023-03-13T00:38:23.065Z,4.70
2023-03-13T00:40:33.940Z,4.35
2023-03-13T00:42:42.174Z,4.25
2023-03-13T00:44:50.236Z,4.15
2023-03-13T00:46:58.059Z,4.50
2023-03-13T00:49:06.466Z,3.80
2023-03-13T00:51:16.026Z,4.45
2023-03-13T00:53:24.188Z,3.60
2023-03-13T00:55:34.722Z,3.83
2023-03-13T00:57:42.621Z,4.70
2023-03-13T00:59:50.549Z,3.67
2023-03-13T01:01:58.618Z,3.70
2023-03-13T01:04:08.983Z,3.38
2023-03-13T01:06:19.458Z,3.30
2023-03-13T01:08:27.730Z,3.95
2023-03-13T01:10:38.544Z,4.00
2023-03-13T01:12:46.360Z,4.18
2023-03-13T01:14:54.436Z,3.67
2023-03-13T01:17:03.778Z,4.28
2023-03-13T01:19:13.700Z,3.65
2023-03-13T01:21:23.469Z,3.42
2023-03-13T01:23:31.824Z,3.45
2023-03-13T01:25:43.197Z,3.05
2023-03-13T01:27:51.354Z,3.65
2023-03-13T01:29:59.296Z,3.30
2023-03-13T01:32:09.286Z,3.92
2023-03-13T01:34:17.392Z,3.15
2023-03-13T01:36:26.169Z,3.75
2023-03-13T01:38:34.250Z,2.88
2023-03-13T01:40:46.803Z,3.55
2023-03-13T01:42:59.569Z,3.58
2023-03-13T01:45:08.543Z,2.70
2023-03-13T01:47:16.766Z,3.60
2023-03-13T01:49:38.451Z,3.40
2023-03-13T01:51:50.475Z,3.28
2023-03-13T01:54:04.199Z,3.40
2023-03-13T01:56:21.840Z,3.85
2023-03-13T01:58:31.433Z,3.53
2023-03-13T02:00:42.603Z,3.30
2023-03-13T02:02:54.346Z,4.13
2023-03-13T02:05:06.225Z,4.57
2023-03-13T02:07:17.844Z,3.40
2023-03-13T02:09:28.797Z,4.13
2023-03-13T02:11:50.342Z,4.15
2023-03-13T02:14:01.890Z,4.13
2023-03-13T02:16:11.330Z,3.42
2023-03-13T02:18:20.689Z,4.07
2023-03-13T02:20:28.647Z,3.35
2023-03-13T02:22:45.637Z,3.83
2023-03-13T02:24:59.822Z,3.90
2023-03-13T02:27:10.715Z,3.25
2023-03-13T02:29:21.418Z,3.03
2023-03-13T02:31:30.869Z,3.15
2023-03-13T02:33:42.840Z,3.35
2023-03-13T02:35:53.459Z,2.75
2023-03-13T02:38:05.922Z,3.00
2023-03-13T02:40:18.980Z,3.60
2023-03-13T02:42:31.120Z,2.40
2023-03-13T02:44:42.161Z,2.92
2023-03-13T02:46:53.295Z,2.65
2023-03-13T02:49:23.224Z,2.30
2023-03-13T02:51:34.606Z,3.05
2023-03-13T02:53:46.557Z,3.28
2023-03-13T02:55:55.558Z,2.60
2023-03-13T02:58:06.077Z,3.45
2023-03-13T03:00:18.349Z,2.53
2023-03-13T03:02:26.596Z,2.55
2023-03-13T03:04:35.214Z,2.55
2023-03-13T03:06:42.966Z,2.20
2023-03-13T03:08:51.065Z,2.45
2023-03-13T03:10:59.834Z,1.83
2023-03-13T03:13:10.856Z,1.73
2023-03-13T03:15:19.120Z,2.00
2023-03-13T03:17:29.045Z,1.58
2023-03-13T03:19:36.906Z,1.98
2023-03-13T03:21:45.008Z,2.05
2023-03-13T03:23:53.575Z,1.77
2023-03-13T03:26:01.544Z,1.33
2023-03-13T03:28:14.411Z,1.80
2023-03-13T03:30:24.043Z,1.80
2023-03-13T03:32:33.361Z,1.65
2023-03-13T03:34:41.372Z,2.50
2023-03-13T03:36:49.437Z,1.80
2023-03-13T03:38:57.518Z,1.70
2023-03-13T03:41:08.407Z,1.73
2023-03-13T03:43:19.270Z,1.50
2023-03-13T03:45:27.065Z,1.50
2023-03-13T03:47:35.343Z,1.85
2023-03-13T03:49:43.511Z,1.25
2023-03-13T03:51:55.506Z,1.95
2023-03-13T03:54:09.518Z,1.92
2023-03-13T03:56:18.082Z,1.40
2023-03-13T03:58:34.071Z,1.13
2023-03-13T04:00:52.632Z,1.40
2023-03-13T04:03:00.672Z,1.52
2023-03-13T04:05:08.967Z,1.33
2023-03-13T04:07:18.250Z,1.23
2023-03-13T04:09:31.852Z,1.40
2023-03-13T04:11:40.514Z,1.23
2023-03-13T04:13:53.145Z,1.83
2023-03-13T04:16:01.284Z,1.45
2023-03-13T04:18:09.147Z,1.30
2023-03-13T04:20:17.859Z,1.58
2023-03-13T04:22:26.171Z,1.02
2023-03-13T04:24:38.716Z,1.40
2023-03-13T04:26:46.719Z,1.02
2023-03-13T04:28:59.236Z,1.20
2023-03-13T04:31:30.427Z,0.98
2023-03-13T04:33:56.148Z,0.90
2023-03-13T04:36:33.996Z,1.67
2023-03-13T04:39:14.633Z,1.05
2023-03-13T04:41:41.250Z,1.20
2023-03-13T04:44:10.885Z,0.93
2023-03-13T04:46:37.157Z,0.82
2023-03-13T04:49:14.629Z,1.17
2023-03-13T04:51:46.461Z,0.90
2023-03-13T04:54:20.492Z,1.02
2023-03-13T04:56:44.175Z,1.10
2023-03-13T04:59:19.395Z,0.80
2023-03-13T05:02:00.836Z,1.30
2023-03-13T05:04:32.278Z,1.10
2023-03-13T05:07:07.966Z,1.02
2023-03-13T05:09:32.016Z,0.80
2023-03-13T05:12:12.754Z,0.90
2023-03-13T05:14:50.491Z,1.40
2023-03-13T05:17:07.463Z,1.40
2023-03-13T05:19:47.881Z,1.35
2023-03-13T05:21:55.862Z,1.20
2023-03-13T05:24:19.251Z,1.20
2023-03-13T05:26:45.990Z,1.10
2023-03-13T05:29:23.017Z,1.20
2023-03-13T05:31:39.605Z,1.05
2023-03-13T05:34:02.113Z,1.00
2023-03-13T05:36:33.672Z,1.00
2023-03-13T05:39:08.094Z,1.15
2023-03-13T05:41:34.257Z,1.08
2023-03-13T05:44:00.764Z,1.08
2023-03-13T05:46:14.642Z,1.00
2023-03-13T05:48:53.850Z,1.13
2023-03-13T05:51:24.646Z,1.10
2023-03-13T05:53:46.194Z,0.90
2023-03-13T05:56:07.913Z,1.23
2023-03-13T05:58:36.283Z,1.00
2023-03-13T06:00:49.931Z,0.88
2023-03-13T06:03:20.627Z,1.40
2023-03-13T06:05:33.962Z,0.98
2023-03-13T06:07:44.769Z,0.88
2023-03-13T06:09:52.519Z,0.90
2023-03-13T06:12:00.556Z,1.50
2023-03-13T06:14:08.838Z,1.00
2023-03-13T06:16:26.524Z,1.42
2023-03-13T06:18:39.344Z,0.80
2023-03-13T06:21:04.811Z,0.90
2023-03-13T06:23:12.738Z,0.73
2023-03-13T06:25:20.743Z,0.82
2023-03-13T06:27:30.632Z,1.10
2023-03-13T06:29:38.504Z,0.80
2023-03-13T06:31:47.090Z,0.70
2023-03-13T06:33:56.352Z,0.65
2023-03-13T06:36:07.656Z,0.60
2023-03-13T06:38:18.576Z,1.08
2023-03-13T06:40:26.428Z,1.00
2023-03-13T06:42:34.681Z,1.13
2023-03-13T06:44:42.475Z,0.75
2023-03-13T06:46:50.325Z,0.80
2023-03-13T06:48:58.255Z,0.80
2023-03-13T06:51:14.784Z,1.38
2023-03-13T06:53:23.764Z,1.08
2023-03-13T06:55:32.197Z,0.80
2023-03-13T06:57:40.072Z,1.20
2023-03-13T06:59:47.949Z,1.95
2023-03-13T07:01:55.654Z,1.50
2023-03-13T07:04:03.672Z,0.90
2023-03-13T07:06:15.234Z,0.80
2023-03-13T07:08:23.315Z,0.80
2023-03-13T07:10:31.240Z,0.90
2023-03-13T07:12:39.539Z,2.40
2023-03-13T07:14:47.397Z,0.85
2023-03-13T07:16:55.356Z,0.80
2023-03-13T07:19:04.276Z,0.77
2023-03-13T07:21:15.733Z,0.75
2023-03-13T07:23:23.529Z,1.55
2023-03-13T07:25:31.353Z,0.90
2023-03-13T07:27:39.545Z,0.90
2023-03-13T07:29:47.303Z,0.57
2023-03-13T07:31:55.613Z,0.80
2023-03-13T07:34:03.985Z,0.70
2023-03-13T07:36:15.751Z,0.70
2023-03-13T07:38:24.217Z,0.68
2023-03-13T07:40:32.286Z,0.77
2023-03-13T07:42:43.390Z,0.82
2023-03-13T07:44:51.612Z,0.80
2023-03-13T07:47:02.616Z,0.90
2023-03-13T07:49:10.541Z,0.52
2023-03-13T07:51:36.892Z,0.73
2023-03-13T07:53:50.879Z,0.52
2023-03-13T07:56:00.939Z,0.80
2023-03-13T07:58:08.825Z,0.80
2023-03-13T08:00:18.774Z,0.85
2023-03-13T08:02:26.997Z,1.10
2023-03-13T08:04:34.891Z,0.90
2023-03-13T08:06:45.699Z,1.00
2023-03-13T08:08:54.390Z,0.90
2023-03-13T08:11:06.680Z,1.00
2023-03-13T08:13:14.560Z,0.95
2023-03-13T08:15:26.248Z,0.80
2023-03-13T08:17:34.319Z,0.90
2023-03-13T08:19:42.319Z,0.75
2023-03-13T08:21:52.752Z,1.05
2023-03-13T08:24:02.723Z,1.17
2023-03-13T08:26:12.756Z,1.05
2023-03-13T08:28:20.945Z,0.85
2023-03-13T08:30:28.768Z,1.30
2023-03-13T08:32:37.554Z,0.93
2023-03-13T08:34:45.686Z,1.02
2023-03-13T08:36:57.091Z,0.90
2023-03-13T08:39:07.315Z,1.00
2023-03-13T08:41:16.136Z,1.00
2023-03-13T08:43:23.953Z,1.00
2023-03-13T08:45:31.700Z,1.20
2023-03-13T08:47:39.667Z,1.80
2023-03-13T08:49:47.678Z,1.20
2023-03-13T08:51:58.138Z,0.85
2023-03-13T08:54:07.004Z,0.85
2023-03-13T08:56:20.256Z,1.00
2023-03-13T08:58:28.367Z,0.90
2023-03-13T09:00:36.358Z,1.02
2023-03-13T09:02:44.615Z,1.10
2023-03-13T09:04:52.790Z,1.00
2023-03-13T09:07:03.247Z,1.10
2023-03-13T09:09:12.744Z,0.80
2023-03-13T09:11:23.082Z,1.05
2023-03-13T09:13:32.303Z,0.90
2023-03-13T09:15:40.105Z,1.13
2023-03-13T09:17:47.928Z,1.30
2023-03-13T09:20:00.529Z,1.13
2023-03-13T09:22:11.955Z,0.93
2023-03-13T09:24:20.634Z,1.30
2023-03-13T09:26:29.407Z,1.20
2023-03-13T09:28:37.628Z,0.90
2023-03-13T09:30:45.699Z,0.90
2023-03-13T09:32:53.813Z,1.10
2023-03-13T09:35:01.882Z,1.00
2023-03-13T09:37:12.497Z,1.10
2023-03-13T09:39:20.235Z,0.90
2023-03-13T09:41:35.503Z,0.95
2023-03-13T09:43:50.166Z,1.10
2023-03-13T09:46:02.751Z,1.20
2023-03-13T09:48:16.738Z,0.98
2023-03-13T09:50:30.326Z,1.30
2023-03-13T09:52:44.289Z,1.20
2023-03-13T09:54:56.211Z,1.30
2023-03-13T09:57:16.959Z,1.40
2023-03-13T09:59:31.913Z,1.30
2023-03-13T10:01:44.427Z,1.60
2023-03-13T10:04:11.782Z,1.48
2023-03-13T10:06:24.820Z,1.70
2023-03-13T10:08:38.027Z,1.35
2023-03-13T10:10:50.184Z,1.45
2023-03-13T10:13:05.869Z,1.35
2023-03-13T10:15:42.283Z,1.20
2023-03-13T10:17:50.432Z,1.45
2023-03-13T10:20:09.049Z,1.27
2023-03-13T10:22:20.348Z,1.10
2023-03-13T10:24:37.053Z,1.30
2023-03-13T10:26:45.180Z,1.20
2023-03-13T10:28:54.590Z,1.37
2023-03-13T10:31:11.191Z,1.60
2023-03-13T10:33:26.524Z,1.60
2023-03-13T10:35:37.177Z,1.20
2023-03-13T10:37:46.781Z,4.90
2023-03-13T10:39:58.084Z,2.60
2023-03-13T10:42:12.935Z,2.20
2023-03-13T10:44:23.425Z,2.40
2023-03-13T10:46:33.319Z,2.33
2023-03-13T10:48:41.884Z,1.70
2023-03-13T10:50:51.463Z,1.95
2023-03-13T10:53:00.562Z,2.85
2023-03-13T10:55:15.329Z,1.80
2023-03-13T10:57:34.370Z,2.10
2023-03-13T11:00:08.544Z,1.75
2023-03-13T11:02:29.080Z,1.77
2023-03-13T11:04:39.326Z,1.85
2023-03-13T11:06:55.861Z,2.20
2023-03-13T11:09:16.496Z,1.98
2023-03-13T11:11:31.005Z,2.20
2023-03-13T11:13:43.202Z,2.03
2023-03-13T11:15:58.787Z,1.85
2023-03-13T11:18:14.385Z,2.03
2023-03-13T11:20:30.554Z,1.90
2023-03-13T11:22:57.012Z,1.88
2023-03-13T11:25:21.191Z,2.10
2023-03-13T11:27:38.748Z,1.70
2023-03-13T11:29:57.860Z,1.63
2023-03-13T11:32:14.135Z,2.05
2023-03-13T11:34:28.035Z,1.85
2023-03-13T11:36:38.512Z,2.10
2023-03-13T11:38:51.534Z,1.90
2023-03-13T11:41:13.549Z,1.88
2023-03-13T11:43:42.210Z,1.80
2023-03-13T11:46:12.042Z,1.70
2023-03-13T11:48:29.659Z,1.55
2023-03-13T11:50:46.413Z,1.85
2023-03-13T11:53:11.790Z,2.00
2023-03-13T11:55:28.258Z,1.77
2023-03-13T11:57:44.444Z,1.70
2023-03-13T12:00:10.615Z,1.90
2023-03-13T12:02:28.249Z,1.80
2023-03-13T12:04:42.879Z,1.35
2023-03-13T12:06:57.584Z,1.55
2023-03-13T12:09:12.858Z,1.50
2023-03-13T12:11:27.611Z,1.52
2023-03-13T12:13:41.728Z,1.80
2023-03-13T12:15:55.474Z,1.50
2023-03-13T12:18:06.389Z,1.80
2023-03-13T12:20:22.276Z,1.50
2023-03-13T12:22:39.207Z,1.50
2023-03-13T12:24:53.377Z,1.60
2023-03-13T12:27:05.102Z,1.80
2023-03-13T12:29:19.743Z,1.45
2023-03-13T12:31:34.933Z,1.45
2023-03-13T12:33:47.368Z,1.45
2023-03-13T12:36:01.489Z,1.77
2023-03-13T12:38:17.845Z,1.63
2023-03-13T12:40:32.521Z,1.45
2023-03-13T12:42:48.876Z,1.95
2023-03-13T12:44:57.505Z,1.80
2023-03-13T12:47:13.365Z,1.40
2023-03-13T12:50:03.264Z,2.05
2023-03-13T12:52:38.651Z,1.80
2023-03-13T12:55:01.191Z,1.40
2023-03-13T12:57:27.372Z,1.45
2023-03-13T12:59:44.041Z,1.65
2023-03-13T13:01:55.962Z,1.60
2023-03-13T13:04:09.940Z,1.60
2023-03-13T13:06:19.768Z,1.50
2023-03-13T13:08:29.989Z,1.83
2023-03-13T13:10:41.635Z,1.33
2023-03-13T13:13:10.999Z,1.70
2023-03-13T13:15:25.691Z,1.75
2023-03-13T13:17:58.027Z,1.60
2023-03-13T13:20:30.554Z,1.63
2023-03-13T13:22:53.082Z,1.50
2023-03-13T13:25:03.016Z,1.65
2023-03-13T13:27:32.459Z,1.60
2023-03-13T13:30:03.784Z,1.60
2023-03-13T13:32:36.696Z,2.10
2023-03-13T13:34:58.740Z,1.90
2023-03-13T13:37:31.651Z,1.77
2023-03-13T13:39:43.645Z,2.00
2023-03-13T13:41:51.667Z,1.40
2023-03-13T13:44:23.173Z,1.67
2023-03-13T13:46:33.991Z,1.90
2023-03-13T13:48:44.646Z,1.80
2023-03-13T13:51:25.205Z,1.50
2023-03-13T13:53:41.376Z,1.70
2023-03-13T13:55:49.978Z,1.43
2023-03-13T13:58:07.256Z,1.70
2023-03-13T14:00:24.942Z,1.50
2023-03-13T14:02:37.188Z,1.67
2023-03-13T14:04:55.404Z,1.60
2023-03-13T14:07:07.667Z,1.30
2023-03-13T14:09:27.360Z,1.63
2023-03-13T14:11:38.781Z,1.50
2023-03-13T14:13:46.973Z,1.30
2023-03-13T14:15:56.603Z,1.77
2023-03-13T14:18:18.581Z,1.60
2023-03-13T14:20:36.707Z,1.20
2023-03-13T14:22:49.274Z,1.70
2023-03-13T14:25:01.929Z,1.40
2023-03-13T14:27:18.428Z,1.50
2023-03-13T14:29:28.262Z,1.43
2023-03-13T14:31:38.231Z,1.30
2023-03-13T14:33:46.394Z,1.20
2023-03-13T14:35:58.263Z,1.50
2023-03-13T14:38:06.993Z,1.37
2023-03-13T14:40:24.036Z,1.60
2023-03-13T14:42:32.002Z,1.40
2023-03-13T14:44:40.848Z,1.33
2023-03-13T14:46:50.822Z,1.53
2023-03-13T14:48:59.427Z,1.37
2023-03-13T14:51:15.872Z,1.20
2023-03-13T14:53:25.450Z,2.10
2023-03-13T14:55:36.599Z,1.40
2023-03-13T14:57:58.364Z,1.70
2023-03-13T15:00:36.309Z,1.10
2023-03-13T15:02:44.197Z,1.20
2023-03-13T15:04:56.130Z,1.63
2023-03-13T15:07:11.893Z,1.50
2023-03-13T15:09:23.909Z,1.33
2023-03-13T15:11:35.170Z,1.10
2023-03-13T15:13:43.074Z,1.37
2023-03-13T15:15:51.600Z,1.20
2023-03-13T15:17:59.375Z,1.43
2023-03-13T15:20:11.066Z,1.30
2023-03-13T15:22:27.316Z,1.23
2023-03-13T15:24:35.708Z,1.80
2023-03-13T15:26:43.889Z,1.17
2023-03-13T15:28:51.812Z,1.17
2023-03-13T15:30:59.603Z,1.27
2023-03-13T15:33:07.806Z,1.30
2023-03-13T15:35:27.436Z,1.50
2023-03-13T15:37:37.917Z,1.50
2023-03-13T15:39:45.694Z,2.00
2023-03-13T15:41:54.293Z,1.20
2023-03-13T15:44:02.151Z,1.40
2023-03-13T15:46:15.915Z,1.30
2023-03-13T15:48:25.326Z,1.25
2023-03-13T15:50:34.125Z,1.10
2023-03-13T15:52:44.548Z,1.10
2023-03-13T15:54:53.908Z,1.55
2023-03-13T15:57:03.521Z,1.65
2023-03-13T15:59:15.103Z,1.67
2023-03-13T16:01:23.290Z,1.58
2023-03-13T16:03:31.797Z,1.70
2023-03-13T16:05:39.830Z,1.77
2023-03-13T16:07:50.358Z,1.65
2023-03-13T16:09:58.416Z,1.52
2023-03-13T16:12:06.762Z,1.50
2023-03-13T16:14:14.632Z,1.55
2023-03-13T16:16:24.840Z,1.70
2023-03-13T16:18:32.587Z,1.80
2023-03-13T16:20:40.435Z,1.55
2023-03-13T16:22:53.825Z,1.70
2023-03-13T16:25:01.682Z,1.50
2023-03-13T16:27:16.969Z,1.58
2023-03-13T16:29:25.792Z,1.30
2023-03-13T16:31:36.917Z,1.45
2023-03-13T16:33:44.778Z,1.38
2023-03-13T16:35:54.742Z,1.83
2023-03-13T16:38:08.464Z,1.67
2023-03-13T16:40:19.941Z,1.60
2023-03-13T16:42:27.799Z,1.45
2023-03-13T16:44:35.849Z,1.30
2023-03-13T16:46:59.099Z,1.17
2023-03-13T16:49:17.253Z,1.52
2023-03-13T16:51:28.428Z,1.50
2023-03-13T16:53:38.877Z,1.52
2023-03-13T16:55:46.867Z,1.63
2023-03-13T16:57:55.127Z,1.10
2023-03-13T17:00:05.155Z,1.00
2023-03-13T17:02:17.685Z,1.35
2023-03-13T17:04:25.552Z,1.20
2023-03-13T17:06:37.844Z,1.35
2023-03-13T17:08:48.410Z,1.25
2023-03-13T17:10:56.465Z,1.40
2023-03-13T17:13:05.760Z,1.50
2023-03-13T17:15:14.023Z,1.83
2023-03-13T17:17:24.227Z,4.25
2023-03-13T17:19:32.410Z,2.08
2023-03-13T17:21:40.507Z,1.90
2023-03-13T17:23:51.321Z,1.67
2023-03-13T17:26:00.176Z,1.60
2023-03-13T17:28:08.664Z,1.70
2023-03-13T17:30:25.266Z,1.60
2023-03-13T17:32:34.193Z,1.50
2023-03-13T17:34:42.371Z,2.25
2023-03-13T17:36:50.286Z,2.10
2023-03-13T17:39:02.641Z,2.22
2023-03-13T17:41:13.836Z,2.67
2023-03-13T17:43:21.762Z,2.22
2023-03-13T17:45:30.986Z,2.08
2023-03-13T17:47:39.068Z,1.90
2023-03-13T17:49:47.956Z,2.08
2023-03-13T17:51:55.878Z,2.10
2023-03-13T17:54:07.138Z,1.85
2023-03-13T17:56:16.779Z,1.90
2023-03-13T17:58:24.567Z,1.90
2023-03-13T18:00:35.197Z,1.75
2023-03-13T18:02:43.226Z,2.08
2023-03-13T18:04:53.680Z,1.58
2023-03-13T18:07:01.779Z,2.00
2023-03-13T18:09:17.043Z,2.03
2023-03-13T18:11:25.817Z,1.70
2023-03-13T18:13:36.913Z,2.20
2023-03-13T18:15:44.991Z,1.80
2023-03-13T18:17:53.528Z,2.25
2023-03-13T18:20:01.482Z,2.45
2023-03-13T18:22:09.745Z,1.90
2023-03-13T18:24:20.510Z,2.10
2023-03-13T18:26:31.790Z,2.10
2023-03-13T18:28:39.774Z,2.00
2023-03-13T18:30:48.788Z,2.35
2023-03-13T18:32:57.116Z,2.60
2023-03-13T18:35:04.973Z,2.63
2023-03-13T18:37:22.250Z,2.65
2023-03-13T18:39:33.307Z,2.55
2023-03-13T18:41:41.125Z,2.20
2023-03-13T18:43:49.220Z,2.70
2023-03-13T18:45:57.477Z,2.33
2023-03-13T18:48:05.621Z,2.33
2023-03-13T18:50:26.828Z,4.25
2023-03-13T18:52:35.179Z,3.30
2023-03-13T18:55:01.673Z,3.55
2023-03-13T18:57:16.312Z,5.90
2023-03-13T18:59:26.366Z,6.68
2023-03-13T19:01:35.223Z,3.47
2023-03-13T19:03:43.811Z,3.78
2023-03-13T19:05:51.678Z,1.85
2023-03-13T19:07:59.806Z,2.50
2023-03-13T19:10:25.664Z,1.95
2023-03-13T19:12:34.228Z,1.90
2023-03-13T19:14:42.195Z,2.50
2023-03-13T19:16:53.118Z,2.47
2023-03-13T19:19:01.611Z,2.13
2023-03-13T19:21:18.128Z,1.67
2023-03-13T19:23:26.586Z,1.90
2023-03-13T19:25:37.515Z,2.17
2023-03-13T19:27:45.674Z,2.05
2023-03-13T19:29:53.421Z,1.98
2023-03-13T19:32:05.375Z,1.80
2023-03-13T19:34:13.765Z,2.10
2023-03-13T19:36:23.693Z,1.95
2023-03-13T19:38:31.673Z,2.10
2023-03-13T19:40:42.223Z,2.15
2023-03-13T19:42:50.218Z,2.35
2023-03-13T19:44:58.129Z,2.10
2023-03-13T19:47:07.705Z,3.10
2023-03-13T19:49:17.169Z,3.10
2023-03-13T19:51:25.966Z,2.25
2023-03-13T19:53:34.835Z,3.40
2023-03-13T19:55:45.523Z,4.70
2023-03-13T19:57:53.687Z,4.53
2023-03-13T20:00:03.557Z,5.53
2023-03-13T20:02:20.187Z,4.93
2023-03-13T20:04:28.264Z,4.80
2023-03-13T20:06:37.778Z,5.43
2023-03-13T20:08:47.574Z,3.53
2023-03-13T20:10:58.034Z,4.03
2023-03-13T20:13:06.036Z,4.00
2023-03-13T20:15:14.862Z,4.47
2023-03-13T20:17:22.778Z,2.90
2023-03-13T20:19:31.766Z,3.15
2023-03-13T20:21:43.037Z,3.10
2023-03-13T20:23:52.580Z,4.20
2023-03-13T20:26:09.817Z,3.53
2023-03-13T20:28:17.931Z,2.00
2023-03-13T20:30:26.178Z,2.58
2023-03-13T20:32:34.428Z,2.25
2023-03-13T20:34:42.748Z,1.40
2023-03-13T20:36:53.591Z,0.73
2023-03-13T20:39:01.567Z,0.68
2023-03-13T20:41:12.838Z,2.65
2023-03-13T20:43:20.776Z,4.35
2023-03-13T20:45:30.356Z,5.40
2023-03-13T20:47:38.518Z,1.30
2023-03-13T20:49:46.503Z,4.03
2023-03-13T20:51:54.516Z,5.85
2023-03-13T20:54:02.364Z,8.30
2023-03-13T20:56:14.620Z,8.50
2023-03-13T20:58:23.058Z,4.85
2023-03-13T21:00:31.120Z,13.85
2023-03-13T21:02:39.056Z,8.77
2023-03-13T21:04:47.052Z,2.25
2023-03-13T21:06:57.887Z,4.13
2023-03-13T21:09:06.069Z,3.45
2023-03-13T21:11:21.708Z,2.03
2023-03-13T21:13:29.782Z,1.10
2023-03-13T21:15:38.280Z,0.90
2023-03-13T21:17:46.456Z,0.93
2023-03-13T21:19:55.347Z,0.52
2023-03-13T21:22:03.538Z,0.60
2023-03-13T21:24:12.220Z,0.80
2023-03-13T21:26:23.608Z,1.83
2023-03-13T21:28:32.218Z,1.30
2023-03-13T21:30:40.226Z,1.23
2023-03-13T21:32:48.694Z,1.33
2023-03-13T21:34:56.734Z,1.13
2023-03-13T21:37:04.763Z,2.00
2023-03-13T21:39:14.371Z,3.63
2023-03-13T21:41:26.088Z,1.90
2023-03-13T21:43:34.297Z,1.15
2023-03-13T21:45:42.228Z,1.40
2023-03-13T21:47:50.207Z,2.10
2023-03-13T21:50:00.712Z,1.50
2023-03-13T21:52:08.610Z,1.55
2023-03-13T21:54:16.521Z,1.60
2023-03-13T21:56:27.429Z,1.70
2023-03-13T21:58:35.304Z,1.45
2023-03-13T22:00:43.243Z,1.60
2023-03-13T22:02:51.339Z,2.00
2023-03-13T22:04:59.062Z,1.63
2023-03-13T22:07:07.158Z,1.60
2023-03-13T22:09:15.403Z,1.63
2023-03-13T22:11:26.928Z,1.40
2023-03-13T22:13:35.934Z,1.40
2023-03-13T22:15:46.472Z,1.10
2023-03-13T22:17:54.443Z,1.63
2023-03-13T22:20:04.304Z,1.30
2023-03-13T22:22:12.150Z,1.50
2023-03-13T22:24:20.061Z,2.10
2023-03-13T22:26:30.509Z,2.33
2023-03-13T22:28:38.612Z,2.90
2023-03-13T22:30:47.987Z,3.17
2023-03-13T22:32:55.877Z,2.72
2023-03-13T22:35:04.128Z,1.50
2023-03-13T22:37:11.985Z,1.40
2023-03-13T22:39:20.047Z,1.60
2023-03-13T22:41:30.483Z,1.65
2023-03-13T22:43:38.829Z,2.30
2023-03-13T22:45:46.669Z,2.70
2023-03-13T22:47:55.309Z,4.95
2023-03-13T22:50:03.498Z,4.80
2023-03-13T22:52:11.364Z,5.00
2023-03-13T22:54:19.719Z,4.45
2023-03-13T22:56:30.377Z,3.60
2023-03-13T22:58:38.202Z,3.63
2023-03-13T23:00:46.230Z,3.10
2023-03-13T23:02:54.871Z,2.25
2023-03-13T23:05:05.517Z,2.22
2023-03-13T23:07:13.407Z,1.92
2023-03-13T23:09:21.175Z,1.90
2023-03-13T23:11:31.615Z,2.00
2023-03-13T23:13:39.450Z,1.75
2023-03-13T23:15:55.682Z,1.70
2023-03-13T23:18:03.962Z,1.20
2023-03-13T23:20:14.539Z,1.55
2023-03-13T23:22:41.547Z,1.00
2023-03-13T23:25:00.652Z,1.02
2023-03-13T23:27:11.902Z,1.10
2023-03-13T23:29:19.881Z,1.13
2023-03-13T23:31:27.860Z,1.13
2023-03-13T23:33:35.853Z,1.35
2023-03-13T23:35:44.118Z,0.77
2023-03-13T23:37:55.000Z,1.10
2023-03-13T23:40:04.508Z,1.30
2023-03-13T23:42:15.205Z,1.00
2023-03-13T23:44:23.137Z,1.02
2023-03-13T23:46:30.907Z,1.05
2023-03-13T23:48:38.672Z,1.02
2023-03-13T23:50:46.582Z,1.02
2023-03-13T23:52:55.622Z,1.38
2023-03-13T23:55:04.478Z,1.25
2023-03-13T23:57:14.964Z,0.90
2023-03-13T23:59:22.940Z,1.27
